Estaca de Bares, Galicia

latitud = 43° 47' 14''N | longitud = 007° 41' 00''W
59 metros sobre el nivel del mar | datos mensuales

Fecha, hora, temperatura, viento dirección y velocidad, humedad y presión.

  • 23-04-2018 10:00:00 | 11.70°C | Nordeste |29.00 km/h | 89.00% | 1010.70 hPa
  • 23-04-2018 09:00:00 | 11.80°C | Nordeste |29.00 km/h | 88.00% | 1010.10 hPa
  • 23-04-2018 08:00:00 | 12.10°C | Este |18.00 km/h | 85.00% | 1009.80 hPa
  • 23-04-2018 07:00:00 | 11.90°C | Este |11.00 km/h | 84.00% | 1009.50 hPa
  • 23-04-2018 06:00:00 | 12.00°C | Sudeste |12.00 km/h | 82.00% | 1009.20 hPa
  • 23-04-2018 05:00:00 | 11.90°C | Sudeste |11.00 km/h | 84.00% | 1009.20 hPa
  • 23-04-2018 04:00:00 | 11.60°C | Sudeste |14.00 km/h | 85.00% | 1009.10 hPa
  • 23-04-2018 03:00:00 | 11.50°C | Sudeste |14.00 km/h | 84.00% | 1009.40 hPa
  • 23-04-2018 02:00:00 | 11.50°C | Sudeste |13.00 km/h | 84.00% | 1009.50 hPa
  • 23-04-2018 01:00:00 | 11.70°C | Sudeste |13.00 km/h | 84.00% | 1009.50 hPa
  • 23-04-2018 00:00:00 | 11.60°C | Sudeste |13.00 km/h | 84.00% | 1009.30 hPa
  • 22-04-2018 23:00:00 | 11.80°C | Este |9.00 km/h | 82.00% | 1009.10 hPa
  • 22-04-2018 22:00:00 | 12.00°C | Nordeste |14.00 km/h | 82.00% | 1008.70 hPa
  • 22-04-2018 21:00:00 | 12.40°C | Nordeste |8.00 km/h | 80.00% | 1008.00 hPa
  • 22-04-2018 20:00:00 | 14.30°C | Norte |5.00 km/h | 74.00% | 1007.30 hPa
  • 22-04-2018 19:00:00 | 13.80°C | Norte |3.00 km/h | 79.00% | 1006.90 hPa
  • 22-04-2018 18:00:00 | 13.20°C | Noroeste |7.00 km/h | 79.00% | 1006.80 hPa
  • 22-04-2018 17:00:00 | 13.70°C | Noroeste |15.00 km/h | 79.00% | 1006.30 hPa
  • 22-04-2018 16:00:00 | 13.50°C | Noroeste |22.00 km/h | 84.00% | 1006.20 hPa
  • 22-04-2018 15:00:00 | 13.30°C | Noroeste |14.00 km/h | 86.00% | 1005.90 hPa
  • 22-04-2018 14:00:00 | 13.30°C | Noroeste |22.00 km/h | 87.00% | 1005.90 hPa
  • 22-04-2018 13:00:00 | 12.90°C | Noroeste |30.00 km/h | 88.00% | 1005.70 hPa
  • 22-04-2018 12:00:00 | 12.90°C | Noroeste |27.00 km/h | 89.00% | 1005.90 hPa
  • 22-04-2018 11:00:00 | 12.70°C | Oeste |30.00 km/h | 90.00% | 1005.70 hPa